Time;durP1;ratioP1;P1;durP2;ratioP2;P2;SDS_P1;SDS_P2;PMS_P1;PMS_P2;Temp;Humidity;BMP_temperature;BMP_pressure;BME280_temperature;BME280_humidity;BME280_pressure;Samples;Min_cycle;Max_cycle;Signal;HPM_P1;HPM_P2
2021/12/02 00:00:37;;;;;;;1.00;0.90;;;;;;;;;;5039747;28;20387;-86
2021/12/02 00:03:05;;;;;;;3.38;0.90;;;;;;;;;;5060104;28;20021;-86
2021/12/02 00:05:30;;;;;;;3.38;1.10;;;;;;;;;;5060374;28;20021;-84
2021/12/02 00:07:56;;;;;;;0.80;0.80;;;;;;;;;;5061823;28;20399;-85
2021/12/02 00:10:26;;;;;;;2.08;0.90;;;;;;;;;;5060676;28;20118;-85
2021/12/02 00:12:54;;;;;;;1.55;1.00;;;;;;;;;;5043996;28;20029;-85
2021/12/02 00:15:23;;;;;;;2.40;1.10;;;;;;;;;;5043742;28;20025;-85
2021/12/02 00:17:56;;;;;;;0.90;0.77;;;;;;;;;;5061250;28;20036;-84
2021/12/02 00:23:28;;;;;;;1.48;0.80;;;;;;;;;;5059475;28;20081;-85
2021/12/02 00:25:56;;;;;;;2.60;1.20;;;;;;;;;;5059935;28;20095;-86
2021/12/02 00:28:25;;;;;;;1.73;0.95;;;;;;;;;;5060125;28;20021;-86
2021/12/02 00:30:52;;;;;;;3.42;1.08;;;;;;;;;;5059581;28;20021;-84
2021/12/02 00:33:18;;;;;;;1.75;0.93;;;;;;;;;;5058742;28;20029;-85
2021/12/02 00:35:44;;;;;;;3.05;1.08;;;;;;;;;;5067250;28;20019;-81
2021/12/02 00:38:10;;;;;;;1.02;0.93;;;;;;;;;;5043670;28;20029;-85
2021/12/02 00:40:36;;;;;;;1.67;0.80;;;;;;;;;;5041409;28;20120;-85
2021/12/02 00:43:02;;;;;;;2.67;1.50;;;;;;;;;;5059761;28;20494;-83
2021/12/02 00:45:27;;;;;;;1.48;0.80;;;;;;;;;;5040890;28;20017;-85
2021/12/02 00:47:53;;;;;;;3.60;1.05;;;;;;;;;;5059261;28;20099;-85
2021/12/02 00:50:19;;;;;;;4.20;1.02;;;;;;;;;;5059314;28;20390;-85
2021/12/02 00:52:46;;;;;;;3.00;1.02;;;;;;;;;;5060353;28;20036;-86
2021/12/02 00:55:12;;;;;;;2.00;1.05;;;;;;;;;;5040641;28;20059;-83
2021/12/02 00:57:39;;;;;;;1.83;0.90;;;;;;;;;;5059600;28;20020;-85
2021/12/02 01:00:05;;;;;;;2.03;1.00;;;;;;;;;;5059474;28;20039;-85
2021/12/02 01:02:32;;;;;;;4.57;1.15;;;;;;;;;;5060453;28;20036;-84
2021/12/02 01:04:59;;;;;;;1.08;0.90;;;;;;;;;;5060074;28;20028;-85
2021/12/02 01:07:24;;;;;;;4.60;1.08;;;;;;;;;;5059492;28;20471;-85
2021/12/02 01:09:49;;;;;;;1.63;0.80;;;;;;;;;;5041250;28;20041;-85
2021/12/02 01:12:17;;;;;;;5.22;1.00;;;;;;;;;;5042037;28;20017;-82
2021/12/02 01:14:46;;;;;;;5.72;1.00;;;;;;;;;;5040285;28;20020;-84
2021/12/02 01:17:11;;;;;;;1.42;0.93;;;;;;;;;;5041687;28;20024;-83
2021/12/02 01:19:37;;;;;;;2.88;0.90;;;;;;;;;;5059628;28;20028;-86
2021/12/02 01:22:03;;;;;;;3.50;1.25;;;;;;;;;;5060219;28;20029;-86
2021/12/02 01:24:30;;;;;;;0.82;0.77;;;;;;;;;;5059919;28;20033;-86
2021/12/02 01:26:57;;;;;;;2.22;0.80;;;;;;;;;;5041637;28;20020;-83
2021/12/02 01:29:24;;;;;;;3.80;1.00;;;;;;;;;;5036191;28;20020;-85
2021/12/02 01:31:52;;;;;;;1.83;1.00;;;;;;;;;;5059408;28;20025;-83
2021/12/02 01:34:26;;;;;;;3.75;0.90;;;;;;;;;;5059420;28;20021;-84
2021/12/02 01:36:53;;;;;;;3.88;1.38;;;;;;;;;;5058942;28;20025;-84
2021/12/02 01:39:20;;;;;;;0.80;0.80;;;;;;;;;;5059916;28;20031;-84
2021/12/02 01:41:53;;;;;;;1.23;0.90;;;;;;;;;;5040996;28;20813;-85
2021/12/02 01:44:20;;;;;;;0.80;0.80;;;;;;;;;;5041549;28;20025;-85
2021/12/02 01:46:56;;;;;;;2.10;0.77;;;;;;;;;;5041666;28;20032;-85
2021/12/02 01:49:25;;;;;;;2.17;1.23;;;;;;;;;;5057932;28;20040;-85
2021/12/02 01:52:40;;;;;;;2.50;1.00;;;;;;;;;;5059147;28;20108;-85
2021/12/02 01:55:12;;;;;;;1.92;1.00;;;;;;;;;;5054889;28;20029;-84
2021/12/02 01:58:01;;;;;;;3.55;1.23;;;;;;;;;;5059556;28;20020;-86
2021/12/02 02:00:41;;;;;;;1.60;1.50;;;;;;;;;;5034699;28;20033;-86
2021/12/02 02:03:08;;;;;;;4.03;1.15;;;;;;;;;;5060006;28;20029;-86
2021/12/02 02:05:34;;;;;;;1.75;1.00;;;;;;;;;;5058985;28;20025;-84
2021/12/02 02:08:03;;;;;;;1.30;0.95;;;;;;;;;;5058559;28;20039;-84
2021/12/02 02:10:35;;;;;;;5.15;0.90;;;;;;;;;;5059014;28;20545;-85
2021/12/02 02:13:06;;;;;;;2.88;1.23;;;;;;;;;;5040763;28;20021;-83
2021/12/02 02:15:32;;;;;;;2.47;1.13;;;;;;;;;;5041485;28;20032;-86
2021/12/02 02:20:56;;;;;;;1.08;0.75;;;;;;;;;;5060438;28;20390;-85
2021/12/02 02:23:22;;;;;;;4.85;0.90;;;;;;;;;;5061696;28;20021;-83
2021/12/02 02:25:48;;;;;;;5.25;1.20;;;;;;;;;;5044733;28;20044;-86
2021/12/02 02:28:14;;;;;;;0.70;0.70;;;;;;;;;;5062777;28;20047;-85
2021/12/02 02:30:40;;;;;;;2.72;1.02;;;;;;;;;;5044317;28;20021;-85
2021/12/02 02:33:06;;;;;;;4.47;0.85;;;;;;;;;;5042887;28;20025;-85
2021/12/02 02:35:31;;;;;;;1.45;0.93;;;;;;;;;;5062248;28;20017;-84
2021/12/02 02:37:59;;;;;;;1.10;0.70;;;;;;;;;;5061256;28;20013;-85
2021/12/02 02:40:25;;;;;;;2.47;0.93;;;;;;;;;;5061986;28;20029;-85
2021/12/02 02:42:56;;;;;;;1.38;0.80;;;;;;;;;;5060315;28;20541;-85
2021/12/02 02:45:22;;;;;;;0.50;0.50;;;;;;;;;;5044026;28;20017;-85
2021/12/02 02:47:47;;;;;;;1.73;0.85;;;;;;;;;;5061290;28;20070;-85
2021/12/02 02:50:14;;;;;;;1.30;0.70;;;;;;;;;;5035705;28;20383;-85
2021/12/02 02:52:40;;;;;;;0.50;0.40;;;;;;;;;;5061047;28;20104;-84
2021/12/02 02:55:06;;;;;;;0.82;0.68;;;;;;;;;;5058137;28;20557;-85
2021/12/02 02:57:40;;;;;;;1.95;0.75;;;;;;;;;;5062409;28;20505;-85
2021/12/02 03:00:11;;;;;;;0.40;0.40;;;;;;;;;;5061341;28;20032;-85
2021/12/02 03:03:03;;;;;;;0.65;0.55;;;;;;;;;;5042791;28;20033;-85
2021/12/02 03:06:20;;;;;;;0.80;0.80;;;;;;;;;;5058207;28;20025;-85
2021/12/02 03:08:31;;;;;;;1.17;0.65;;;;;;;;;;5050258;28;20024;-85
2021/12/02 03:10:58;;;;;;;1.42;0.60;;;;;;;;;;5061124;28;20036;-85
2021/12/02 03:13:37;;;;;;;0.50;0.50;;;;;;;;;;5060942;28;20052;-83
2021/12/02 03:18:51;;;;;;;2.40;0.88;;;;;;;;;;5060217;28;20461;-84
2021/12/02 03:21:23;;;;;;;0.95;0.50;;;;;;;;;;5043141;28;20052;-83
2021/12/02 03:23:54;;;;;;;3.10;0.93;;;;;;;;;;5059911;28;20075;-84
2021/12/02 03:26:19;;;;;;;2.15;0.80;;;;;;;;;;5060498;28;20269;-83
2021/12/02 03:28:48;;;;;;;1.48;0.55;;;;;;;;;;5061608;28;20056;-83
2021/12/02 03:31:15;;;;;;;0.43;0.43;;;;;;;;;;5041654;28;20025;-83
2021/12/02 03:33:41;;;;;;;1.02;0.70;;;;;;;;;;5058308;28;20032;-83
2021/12/02 03:36:11;;;;;;;0.82;0.63;;;;;;;;;;5041297;28;20033;-85
2021/12/02 03:38:36;;;;;;;2.20;1.05;;;;;;;;;;5059705;28;20017;-86
2021/12/02 03:41:02;;;;;;;4.40;0.88;;;;;;;;;;5042027;28;20032;-84
2021/12/02 03:43:36;;;;;;;0.82;0.73;;;;;;;;;;5041073;28;20033;-85
2021/12/02 03:46:02;;;;;;;1.20;0.70;;;;;;;;;;5060047;28;20453;-84
2021/12/02 03:48:28;;;;;;;1.52;0.88;;;;;;;;;;5059010;28;20024;-84
2021/12/02 03:50:53;;;;;;;1.50;0.80;;;;;;;;;;5040392;28;20467;-84
2021/12/02 03:53:18;;;;;;;1.30;0.90;;;;;;;;;;5059356;28;20052;-84
2021/12/02 03:55:44;;;;;;;1.00;0.90;;;;;;;;;;5059497;28;20016;-83
2021/12/02 03:58:09;;;;;;;2.95;0.80;;;;;;;;;;5059917;28;20043;-85
2021/12/02 04:00:34;;;;;;;1.05;0.95;;;;;;;;;;5041658;28;20021;-83
2021/12/02 04:03:00;;;;;;;2.63;0.90;;;;;;;;;;5059633;28;20036;-85
2021/12/02 04:05:25;;;;;;;1.88;0.85;;;;;;;;;;5041242;28;20021;-85
2021/12/02 04:07:51;;;;;;;1.15;0.80;;;;;;;;;;5042213;28;20017;-84
2021/12/02 04:10:17;;;;;;;0.70;0.70;;;;;;;;;;5060309;28;20029;-85
2021/12/02 04:15:23;;;;;;;1.02;0.50;;;;;;;;;;5059788;28;20028;-84
2021/12/02 04:17:48;;;;;;;2.67;0.90;;;;;;;;;;5059999;28;20024;-85
2021/12/02 04:20:20;;;;;;;3.20;0.85;;;;;;;;;;5058373;28;20055;-85
2021/12/02 04:22:46;;;;;;;2.10;1.10;;;;;;;;;;5041610;28;20067;-85
2021/12/02 04:25:13;;;;;;;1.48;0.80;;;;;;;;;;5059886;28;20059;-84
2021/12/02 04:27:39;;;;;;;3.38;0.90;;;;;;;;;;5042079;28;20028;-86
2021/12/02 04:30:07;;;;;;;4.82;1.00;;;;;;;;;;5058734;28;20033;-85
2021/12/02 04:32:32;;;;;;;1.13;0.80;;;;;;;;;;5040474;28;20036;-86
2021/12/02 04:34:58;;;;;;;0.80;0.80;;;;;;;;;;5058133;28;20021;-85
2021/12/02 04:37:23;;;;;;;1.65;0.77;;;;;;;;;;5041565;28;20471;-85
2021/12/02 04:39:49;;;;;;;1.30;0.90;;;;;;;;;;5060340;28;20033;-85
2021/12/02 04:42:14;;;;;;;2.63;1.00;;;;;;;;;;5037201;28;20049;-83
2021/12/02 04:44:40;;;;;;;7.45;1.15;;;;;;;;;;5053273;28;20096;-85
2021/12/02 04:47:05;;;;;;;2.53;0.75;;;;;;;;;;5037817;28;20061;-84
2021/12/02 04:49:30;;;;;;;3.42;1.08;;;;;;;;;;5053020;28;20017;-85
2021/12/02 04:51:56;;;;;;;2.88;1.35;;;;;;;;;;5039819;28;20028;-85
2021/12/02 04:54:21;;;;;;;1.20;0.70;;;;;;;;;;5057917;28;20025;-83
2021/12/02 04:56:47;;;;;;;0.88;0.70;;;;;;;;;;5058060;28;20052;-85
2021/12/02 04:59:12;;;;;;;2.50;0.85;;;;;;;;;;5057938;28;20021;-84
2021/12/02 05:01:38;;;;;;;6.60;1.20;;;;;;;;;;5039389;28;20044;-86
2021/12/02 05:04:03;;;;;;;1.33;0.95;;;;;;;;;;5058106;28;20033;-86
2021/12/02 05:06:29;;;;;;;0.80;0.77;;;;;;;;;;5041659;28;20383;-86
2021/12/02 05:08:54;;;;;;;1.10;0.90;;;;;;;;;;5039949;28;20467;-84
2021/12/02 05:11:20;;;;;;;3.58;1.17;;;;;;;;;;5057561;28;20017;-86
2021/12/02 05:13:45;;;;;;;1.67;0.82;;;;;;;;;;5057769;28;20479;-85
2021/12/02 05:16:10;;;;;;;2.05;0.90;;;;;;;;;;5057320;28;20383;-84
2021/12/02 05:18:36;;;;;;;1.33;0.80;;;;;;;;;;5058947;28;20021;-87
2021/12/02 05:21:01;;;;;;;4.50;0.90;;;;;;;;;;5060297;28;20021;-85
2021/12/02 05:23:27;;;;;;;0.80;0.80;;;;;;;;;;5058889;28;20036;-84
2021/12/02 05:25:52;;;;;;;2.03;0.70;;;;;;;;;;5058565;28;20035;-86
2021/12/02 05:28:18;;;;;;;1.63;0.95;;;;;;;;;;5060226;28;20027;-86
2021/12/02 05:30:45;;;;;;;2.63;0.90;;;;;;;;;;5039307;28;20112;-86
2021/12/02 05:33:11;;;;;;;3.78;0.90;;;;;;;;;;5056916;28;20040;-83
2021/12/02 05:35:36;;;;;;;1.02;0.90;;;;;;;;;;5050784;28;20017;-86
2021/12/02 05:38:02;;;;;;;0.70;0.70;;;;;;;;;;5059699;28;20021;-84
2021/12/02 05:40:28;;;;;;;0.50;0.50;;;;;;;;;;5059621;28;20036;-85
2021/12/02 05:42:53;;;;;;;0.95;0.80;;;;;;;;;;5041883;28;20056;-85
2021/12/02 05:45:18;;;;;;;3.17;0.82;;;;;;;;;;5043796;28;20029;-85
2021/12/02 05:47:44;;;;;;;2.13;0.90;;;;;;;;;;5042584;28;20024;-84
2021/12/02 05:50:09;;;;;;;0.65;0.65;;;;;;;;;;5059614;28;20025;-85
2021/12/02 05:52:35;;;;;;;0.77;0.77;;;;;;;;;;5060041;28;20040;-85
2021/12/02 05:55:00;;;;;;;1.92;0.50;;;;;;;;;;5040950;28;20047;-86
2021/12/02 05:57:25;;;;;;;2.80;0.75;;;;;;;;;;5063882;28;20029;-85
2021/12/02 05:59:51;;;;;;;0.73;0.73;;;;;;;;;;5045001;28;20036;-84
2021/12/02 06:02:16;;;;;;;1.48;0.70;;;;;;;;;;5046685;28;20029;-84
2021/12/02 06:04:44;;;;;;;0.70;0.70;;;;;;;;;;5062383;28;20043;-86
2021/12/02 06:07:09;;;;;;;1.35;0.73;;;;;;;;;;5062868;28;20017;-83
2021/12/02 06:09:34;;;;;;;2.58;0.77;;;;;;;;;;5062173;28;20020;-86
2021/12/02 06:12:00;;;;;;;0.77;0.77;;;;;;;;;;5063371;28;20108;-86
2021/12/02 06:14:25;;;;;;;0.60;0.57;;;;;;;;;;5044768;28;20029;-86
2021/12/02 06:16:51;;;;;;;0.70;0.70;;;;;;;;;;5058370;28;20033;-86
2021/12/02 06:19:16;;;;;;;1.02;0.77;;;;;;;;;;5060109;28;20025;-86
2021/12/02 06:21:42;;;;;;;0.70;0.70;;;;;;;;;;5043770;28;20037;-83
2021/12/02 06:24:08;;;;;;;0.70;0.70;;;;;;;;;;5043671;28;20735;-86
2021/12/02 06:26:34;;;;;;;0.80;0.80;;;;;;;;;;5032881;28;20031;-86
2021/12/02 06:28:59;;;;;;;1.38;0.73;;;;;;;;;;5062946;28;20123;-85
2021/12/02 06:31:25;;;;;;;2.33;0.93;;;;;;;;;;5062019;28;20487;-85
2021/12/02 06:33:51;;;;;;;2.45;0.82;;;;;;;;;;5060760;28;20017;-85
2021/12/02 06:36:16;;;;;;;0.73;0.50;;;;;;;;;;5062204;28;20029;-87
2021/12/02 06:38:42;;;;;;;2.25;0.80;;;;;;;;;;5060394;28;20033;-87
2021/12/02 06:41:08;;;;;;;1.77;1.10;;;;;;;;;;5058892;28;20598;-87
2021/12/02 06:43:33;;;;;;;2.05;0.95;;;;;;;;;;5059457;28;20490;-88
2021/12/02 06:45:59;;;;;;;1.08;0.70;;;;;;;;;;5059398;28;20032;-90
2021/12/02 06:48:24;;;;;;;0.80;0.80;;;;;;;;;;5059543;28;20017;-89
2021/12/02 06:50:49;;;;;;;0.63;0.63;;;;;;;;;;5058580;28;20036;-88
2021/12/02 06:53:17;;;;;;;1.00;0.90;;;;;;;;;;5059543;28;20032;-88
2021/12/02 06:55:43;;;;;;;1.08;1.05;;;;;;;;;;5030601;28;20424;-87
2021/12/02 06:58:09;;;;;;;3.25;1.08;;;;;;;;;;5057615;28;20494;-86
2021/12/02 07:00:34;;;;;;;2.38;1.35;;;;;;;;;;5058292;28;20033;-87
2021/12/02 07:03:01;;;;;;;1.65;0.82;;;;;;;;;;5040424;28;20426;-87
2021/12/02 07:05:27;;;;;;;2.65;0.80;;;;;;;;;;5058371;28;20164;-85
2021/12/02 07:07:53;;;;;;;0.47;0.47;;;;;;;;;;5055429;28;20021;-87
2021/12/02 07:10:24;;;;;;;0.45;0.45;;;;;;;;;;5039604;28;20125;-86
2021/12/02 07:12:54;;;;;;;0.82;0.57;;;;;;;;;;5054847;28;20092;-85
2021/12/02 07:15:25;;;;;;;1.60;0.70;;;;;;;;;;5055220;28;20025;-87
2021/12/02 07:17:54;;;;;;;0.57;0.57;;;;;;;;;;5058396;28;20032;-88
2021/12/02 07:20:20;;;;;;;1.95;0.60;;;;;;;;;;5058002;28;20025;-87
2021/12/02 07:22:45;;;;;;;0.65;0.55;;;;;;;;;;5057435;28;20032;-85
2021/12/02 07:25:11;;;;;;;0.55;0.55;;;;;;;;;;5057844;28;20494;-87
2021/12/02 07:27:37;;;;;;;1.88;0.68;;;;;;;;;;5055680;28;20459;-88
2021/12/02 07:30:05;;;;;;;0.85;0.70;;;;;;;;;;5055921;28;20375;-87
2021/12/02 07:32:36;;;;;;;2.20;0.52;;;;;;;;;;5057381;28;20395;-87
2021/12/02 07:35:07;;;;;;;0.50;0.50;;;;;;;;;;5054953;28;20082;-88
2021/12/02 07:37:33;;;;;;;1.00;0.50;;;;;;;;;;5057788;28;20817;-86
2021/12/02 07:39:59;;;;;;;0.57;0.57;;;;;;;;;;5040628;28;20426;-86
2021/12/02 07:42:25;;;;;;;0.60;0.60;;;;;;;;;;5058689;28;20025;-85
2021/12/02 07:44:51;;;;;;;0.77;0.77;;;;;;;;;;5040022;28;20464;-85
2021/12/02 07:47:16;;;;;;;1.00;0.85;;;;;;;;;;5041338;28;20055;-87
2021/12/02 07:49:43;;;;;;;0.70;0.70;;;;;;;;;;5058327;28;20092;-86
2021/12/02 07:52:10;;;;;;;0.60;0.60;;;;;;;;;;5040930;28;20105;-87
2021/12/02 07:54:39;;;;;;;0.50;0.50;;;;;;;;;;5064717;28;20029;-84
2021/12/02 07:57:04;;;;;;;0.70;0.70;;;;;;;;;;5066093;28;20494;-87
2021/12/02 07:59:30;;;;;;;1.08;0.77;;;;;;;;;;5056472;28;20021;-88
2021/12/02 08:02:00;;;;;;;1.13;0.90;;;;;;;;;;5038446;28;20123;-85
2021/12/02 08:04:27;;;;;;;5.80;0.90;;;;;;;;;;5056485;28;20045;-86
2021/12/02 08:06:53;;;;;;;1.23;0.60;;;;;;;;;;5056826;28;20482;-85
2021/12/02 08:09:18;;;;;;;2.42;0.85;;;;;;;;;;5057343;28;20029;-86
2021/12/02 08:11:44;;;;;;;2.28;0.88;;;;;;;;;;5057110;28;20031;-86
2021/12/02 08:14:15;;;;;;;1.95;0.60;;;;;;;;;;5039166;28;20500;-86
2021/12/02 08:16:40;;;;;;;0.68;0.68;;;;;;;;;;5038615;28;20032;-85
2021/12/02 08:19:06;;;;;;;0.80;0.60;;;;;;;;;;5057894;28;20162;-88
2021/12/02 08:21:31;;;;;;;1.10;0.60;;;;;;;;;;5056798;28;20040;-87
2021/12/02 08:23:56;;;;;;;5.55;0.95;;;;;;;;;;5057126;28;20040;-84
2021/12/02 08:26:22;;;;;;;0.70;0.70;;;;;;;;;;5037184;28;20025;-89
2021/12/02 08:28:47;;;;;;;0.70;0.70;;;;;;;;;;5055852;28;20387;-88
2021/12/02 08:31:13;;;;;;;2.13;1.30;;;;;;;;;;5054917;28;20063;-85
2021/12/02 08:33:38;;;;;;;2.88;0.80;;;;;;;;;;5056988;28;20486;-88
2021/12/02 08:36:04;;;;;;;2.90;1.05;;;;;;;;;;5039638;28;20021;-85
2021/12/02 08:38:31;;;;;;;1.70;0.90;;;;;;;;;;5040053;28;20047;-86
2021/12/02 08:40:58;;;;;;;4.22;0.93;;;;;;;;;;5057110;28;20066;-84
2021/12/02 08:43:24;;;;;;;1.75;1.20;;;;;;;;;;5039274;28;20036;-87
2021/12/02 08:45:49;;;;;;;3.65;0.68;;;;;;;;;;5040030;28;20025;-85
2021/12/02 08:48:15;;;;;;;1.00;1.00;;;;;;;;;;5039416;28;20017;-85
2021/12/02 08:50:40;;;;;;;0.82;0.77;;;;;;;;;;5057187;28;20079;-85
2021/12/02 08:53:07;;;;;;;0.75;0.75;;;;;;;;;;5038917;28;20017;-88
2021/12/02 08:55:33;;;;;;;0.80;0.80;;;;;;;;;;5038239;28;20021;-87
2021/12/02 08:58:00;;;;;;;1.83;0.60;;;;;;;;;;5053515;28;20028;-87
2021/12/02 09:00:36;;;;;;;1.00;0.85;;;;;;;;;;5056208;28;20533;-87
2021/12/02 09:03:03;;;;;;;1.15;0.80;;;;;;;;;;5055574;28;20053;-88
2021/12/02 09:05:29;;;;;;;1.45;1.00;;;;;;;;;;5055742;28;20017;-86
2021/12/02 09:07:55;;;;;;;1.40;0.88;;;;;;;;;;5037738;28;20049;-88
2021/12/02 09:10:21;;;;;;;2.03;0.90;;;;;;;;;;5054724;28;20032;-86
2021/12/02 09:12:47;;;;;;;1.02;0.90;;;;;;;;;;5036523;28;20494;-84
2021/12/02 09:15:12;;;;;;;1.42;1.10;;;;;;;;;;5036718;28;20029;-84
2021/12/02 09:17:38;;;;;;;1.08;0.93;;;;;;;;;;5038203;28;20021;-88
2021/12/02 09:20:05;;;;;;;7.50;1.08;;;;;;;;;;5056694;28;20395;-86
2021/12/02 09:22:31;;;;;;;1.65;0.82;;;;;;;;;;5038637;28;20025;-91
2021/12/02 09:24:56;;;;;;;1.10;0.82;;;;;;;;;;5040313;28;20028;-90
2021/12/02 09:27:22;;;;;;;0.93;0.93;;;;;;;;;;5055628;28;20021;-88
2021/12/02 09:29:47;;;;;;;1.55;1.00;;;;;;;;;;5053061;28;20021;-89
2021/12/02 09:32:13;;;;;;;2.22;1.02;;;;;;;;;;5054254;28;20040;-88
2021/12/02 09:34:39;;;;;;;2.05;0.93;;;;;;;;;;5054128;28;20017;-87
2021/12/02 09:37:04;;;;;;;5.57;1.30;;;;;;;;;;5053232;28;20025;-88
2021/12/02 09:39:31;;;;;;;1.35;1.20;;;;;;;;;;5054466;28;20032;-88
2021/12/02 09:41:58;;;;;;;2.92;1.27;;;;;;;;;;5037190;28;20058;-88
2021/12/02 09:44:24;;;;;;;1.58;1.48;;;;;;;;;;5035003;28;20103;-86
2021/12/02 09:46:50;;;;;;;4.03;1.73;;;;;;;;;;5053908;28;20021;-89
2021/12/02 09:49:16;;;;;;;5.72;2.03;;;;;;;;;;5054411;28;20032;-87
2021/12/02 09:54:25;;;;;;;0.75;0.75;;;;;;;;;;5056310;28;20025;-87
2021/12/02 09:56:53;;;;;;;1.58;1.00;;;;;;;;;;5055960;28;20108;-86
2021/12/02 09:59:34;;;;;;;1.23;1.00;;;;;;;;;;5037561;28;20057;-87
2021/12/02 10:02:02;;;;;;;1.42;1.08;;;;;;;;;;5055158;28;20094;-88
2021/12/02 10:04:29;;;;;;;1.13;0.90;;;;;;;;;;5036318;28;20017;-87
2021/12/02 10:07:06;;;;;;;2.47;1.00;;;;;;;;;;5053998;28;20029;-90
2021/12/02 10:12:13;;;;;;;0.80;0.80;;;;;;;;;;5054598;28;20021;-90
2021/12/02 10:14:42;;;;;;;2.03;0.95;;;;;;;;;;5036776;28;20055;-89
2021/12/02 10:23:13;;;;;;;0.90;0.90;;;;;;;;;;5053338;28;20160;-90
2021/12/02 10:25:48;;;;;;;10.57;2.03;;;;;;;;;;5033492;28;20025;-90
2021/12/02 10:28:15;;;;;;;1.67;1.38;;;;;;;;;;5032635;28;20029;-87
2021/12/02 10:30:50;;;;;;;1.58;1.20;;;;;;;;;;5032925;28;20034;-89
2021/12/02 10:33:50;;;;;;;1.55;1.30;;;;;;;;;;5044089;28;20501;-87
2021/12/02 10:36:26;;;;;;;1.40;1.30;;;;;;;;;;5035277;28;20503;-89
2021/12/02 10:38:55;;;;;;;1.40;1.15;;;;;;;;;;5053184;28;20494;-89
2021/12/02 10:41:27;;;;;;;3.22;1.90;;;;;;;;;;5036410;28;20037;-86
2021/12/02 10:44:05;;;;;;;2.00;1.30;;;;;;;;;;5034418;28;20029;-88
2021/12/02 12:11:22;;;;;;;3.63;2.05;;;;;;;;;;5039214;28;20052;-87
2021/12/02 12:14:19;;;;;;;4.30;1.60;;;;;;;;;;5006718;28;20038;-90
2021/12/02 12:16:51;;;;;;;2.63;1.75;;;;;;;;;;5023547;28;20128;-89
2021/12/02 12:19:30;;;;;;;2.15;1.30;;;;;;;;;;5030112;28;20028;-90
2021/12/02 12:22:07;;;;;;;2.10;1.90;;;;;;;;;;5028241;28;20044;-90
2021/12/02 12:24:44;;;;;;;2.75;1.70;;;;;;;;;;5034316;28;20096;-88
2021/12/02 12:27:23;;;;;;;2.38;1.92;;;;;;;;;;5032599;28;20109;-88
2021/12/02 12:30:10;;;;;;;4.05;2.20;;;;;;;;;;5034125;28;20095;-88
2021/12/02 12:35:13;;;;;;;2.47;1.90;;;;;;;;;;5045297;28;20487;-89
2021/12/02 12:37:50;;;;;;;3.35;2.10;;;;;;;;;;5052457;28;20471;-89
2021/12/02 12:40:21;;;;;;;4.38;1.88;;;;;;;;;;5052133;28;20029;-89
2021/12/02 12:42:57;;;;;;;2.50;2.30;;;;;;;;;;5034471;28;20026;-88
2021/12/02 12:45:36;;;;;;;4.40;2.08;;;;;;;;;;5044653;28;20040;-88
2021/12/02 12:48:04;;;;;;;2.53;2.00;;;;;;;;;;5015743;28;20101;-89
2021/12/02 12:50:37;;;;;;;3.75;2.33;;;;;;;;;;5034239;28;20036;-89
2021/12/02 12:53:03;;;;;;;2.83;2.00;;;;;;;;;;5022088;28;20043;-90
2021/12/02 12:55:32;;;;;;;6.68;2.20;;;;;;;;;;5053197;28;20021;-89
2021/12/02 12:58:17;;;;;;;4.70;2.08;;;;;;;;;;5032509;28;20025;-89
2021/12/02 13:00:51;;;;;;;1.88;1.65;;;;;;;;;;5033309;28;20075;-89
2021/12/02 13:03:32;;;;;;;3.00;1.60;;;;;;;;;;5028242;28;20029;-87
2021/12/02 13:06:08;;;;;;;1.98;1.75;;;;;;;;;;5051307;28;20413;-89
2021/12/02 13:08:43;;;;;;;2.35;1.50;;;;;;;;;;5053518;28;20467;-89
2021/12/02 13:11:16;;;;;;;1.92;1.70;;;;;;;;;;5058652;23;20057;-88
2021/12/02 13:13:44;;;;;;;1.65;1.48;;;;;;;;;;5035409;28;20022;-89
2021/12/02 13:16:16;;;;;;;2.00;1.80;;;;;;;;;;5032405;28;20026;-89
2021/12/02 13:18:52;;;;;;;;;;;;;;;;;;5000973;28;20025;-86
2021/12/02 13:21:28;;;;;;;3.15;1.65;;;;;;;;;;5013394;28;19955;-88
2021/12/02 13:24:17;;;;;;;3.85;1.90;;;;;;;;;;5014966;28;20064;-88
2021/12/02 13:27:00;;;;;;;2.00;1.90;;;;;;;;;;5015513;28;20054;-88
2021/12/02 13:29:28;;;;;;;3.97;1.70;;;;;;;;;;5018179;28;20139;-87
2021/12/02 13:31:59;;;;;;;1.77;1.50;;;;;;;;;;5018739;28;20026;-87
2021/12/02 13:34:27;;;;;;;3.70;2.00;;;;;;;;;;5018994;28;20029;-87
2021/12/02 13:40:15;;;;;;;2.20;2.00;;;;;;;;;;5037227;28;20055;-88
2021/12/02 13:42:41;;;;;;;2.55;1.38;;;;;;;;;;5035062;28;20017;-88
2021/12/02 13:45:16;;;;;;;2.45;1.40;;;;;;;;;;5018247;28;20031;-89
2021/12/02 13:47:42;;;;;;;1.30;1.20;;;;;;;;;;5036847;28;20258;-88
2021/12/02 13:50:13;;;;;;;1.40;1.30;;;;;;;;;;5019055;28;20108;-91
2021/12/02 13:52:41;;;;;;;0.88;0.88;;;;;;;;;;5032833;28;20013;-91
2021/12/02 13:55:15;;;;;;;1.40;1.15;;;;;;;;;;5036002;28;20467;-88
2021/12/02 13:57:47;;;;;;;1.20;1.10;;;;;;;;;;5019146;28;20022;-88
2021/12/02 14:00:17;;;;;;;2.13;1.00;;;;;;;;;;5015029;28;20022;-88
2021/12/02 14:02:45;;;;;;;1.20;1.10;;;;;;;;;;5013500;28;20451;-89
2021/12/02 14:05:12;;;;;;;2.78;1.05;;;;;;;;;;5015063;28;20030;-90
2021/12/02 14:07:40;;;;;;;1.55;1.17;;;;;;;;;;5016583;28;20030;-88
2021/12/02 14:10:09;;;;;;;1.58;1.20;;;;;;;;;;5016466;28;20083;-88
2021/12/02 14:12:45;;;;;;;3.47;1.38;;;;;;;;;;4998930;28;20026;-87
2021/12/02 14:15:40;;;;;;;3.85;1.33;;;;;;;;;;4998762;28;20030;-87
2021/12/02 14:18:11;;;;;;;3.90;1.67;;;;;;;;;;4994582;28;20072;-89
2021/12/02 14:20:38;;;;;;;2.25;1.50;;;;;;;;;;5019636;28;20053;-89
2021/12/02 14:23:17;;;;;;;1.67;1.48;;;;;;;;;;5001862;28;20029;-90
2021/12/02 14:25:48;;;;;;;1.58;1.40;;;;;;;;;;5006437;28;20026;-88
2021/12/02 14:28:24;;;;;;;4.35;1.40;;;;;;;;;;5006577;28;20014;-87
2021/12/02 14:30:58;;;;;;;3.67;1.55;;;;;;;;;;5001763;28;20124;-87
2021/12/02 14:33:29;;;;;;;2.67;1.67;;;;;;;;;;5021395;28;20022;-87
2021/12/02 14:36:00;;;;;;;2.22;1.42;;;;;;;;;;5021260;28;20029;-89
2021/12/02 14:38:28;;;;;;;3.67;1.90;;;;;;;;;;5038708;28;20021;-88
2021/12/02 14:41:00;;;;;;;4.18;1.75;;;;;;;;;;5039133;28;20048;-87
2021/12/02 14:43:31;;;;;;;2.40;2.08;;;;;;;;;;5039507;28;20022;-87
2021/12/02 14:46:33;;;;;;;3.25;1.70;;;;;;;;;;5017874;28;20038;-87
2021/12/02 14:49:32;;;;;;;2.20;1.60;;;;;;;;;;5000991;28;20025;-87
2021/12/02 14:52:25;;;;;;;1.67;1.58;;;;;;;;;;5037093;28;20075;-88
2021/12/02 14:55:05;;;;;;;2.10;1.90;;;;;;;;;;5021762;28;20100;-89
2021/12/02 14:57:31;;;;;;;4.38;2.00;;;;;;;;;;5039010;28;20029;-87
2021/12/02 15:00:10;;;;;;;2.20;2.00;;;;;;;;;;5020865;28;20028;-89
2021/12/02 15:02:40;;;;;;;2.75;1.92;;;;;;;;;;5021146;28;20036;-89
2021/12/02 15:05:19;;;;;;;2.72;1.63;;;;;;;;;;5020535;28;20117;-87
2021/12/02 15:07:54;;;;;;;4.72;1.60;;;;;;;;;;5020269;28;20017;-88
2021/12/02 15:10:28;;;;;;;2.15;1.55;;;;;;;;;;5030393;28;20025;-86
2021/12/02 15:13:05;;;;;;;4.30;1.38;;;;;;;;;;5036824;28;20176;-88
2021/12/02 15:15:30;;;;;;;1.02;0.93;;;;;;;;;;5037280;28;20332;-87
2021/12/02 15:17:59;;;;;;;1.40;1.30;;;;;;;;;;5021798;28;20047;-87
2021/12/02 15:20:32;;;;;;;2.00;0.98;;;;;;;;;;5021853;28;20021;-86
2021/12/02 15:23:26;;;;;;;0.70;0.70;;;;;;;;;;5020272;28;20021;-86
2021/12/02 15:26:07;;;;;;;0.88;0.88;;;;;;;;;;5020037;28;20034;-88
2021/12/02 15:28:54;;;;;;;0.70;0.70;;;;;;;;;;5035637;28;20438;-86
2021/12/02 15:31:21;;;;;;;1.65;1.10;;;;;;;;;;5035538;28;20021;-85
2021/12/02 15:33:51;;;;;;;1.83;0.70;;;;;;;;;;5019129;28;20017;-87
2021/12/02 15:36:23;;;;;;;1.77;1.30;;;;;;;;;;5017639;28;20447;-87
2021/12/02 15:38:51;;;;;;;1.42;1.20;;;;;;;;;;5005379;28;20029;-89
2021/12/02 15:41:21;;;;;;;1.10;1.10;;;;;;;;;;5018022;28;20053;-88
2021/12/02 15:43:57;;;;;;;3.10;1.15;;;;;;;;;;5036764;28;20018;-86
2021/12/02 15:46:30;;;;;;;1.50;1.40;;;;;;;;;;5017096;28;20120;-86
2021/12/02 15:48:58;;;;;;;8.55;1.77;;;;;;;;;;5020327;28;20492;-89
2021/12/02 15:51:25;;;;;;;4.22;1.77;;;;;;;;;;5035470;28;20030;-88
2021/12/02 15:53:50;;;;;;;2.72;1.73;;;;;;;;;;5037239;28;20079;-88
2021/12/02 15:56:16;;;;;;;2.58;1.40;;;;;;;;;;5020037;28;20112;-88
2021/12/02 15:58:42;;;;;;;2.33;1.73;;;;;;;;;;5019911;28;20018;-88
2021/12/02 16:01:10;;;;;;;6.10;1.60;;;;;;;;;;5019976;28;20039;-87
2021/12/02 16:03:41;;;;;;;1.30;1.20;;;;;;;;;;5019316;28;20025;-88
2021/12/02 16:08:45;;;;;;;4.10;1.45;;;;;;;;;;5035915;28;20025;-88
2021/12/02 16:13:45;;;;;;;2.65;1.50;;;;;;;;;;5034959;28;20026;-88
2021/12/02 16:16:12;;;;;;;1.30;1.20;;;;;;;;;;5034283;28;20036;-89
2021/12/02 16:18:37;;;;;;;1.77;1.45;;;;;;;;;;5018294;28;20502;-89
2021/12/02 16:21:06;;;;;;;1.65;1.50;;;;;;;;;;5036075;28;20025;-88
2021/12/02 16:23:36;;;;;;;1.88;1.60;;;;;;;;;;5031342;28;20033;-86
2021/12/02 16:26:17;;;;;;;2.35;1.70;;;;;;;;;;5028033;28;20036;-89
2021/12/02 16:28:43;;;;;;;6.65;1.95;;;;;;;;;;5033674;28;20036;-86
2021/12/02 16:31:09;;;;;;;3.88;1.95;;;;;;;;;;5034205;28;20422;-86
2021/12/02 16:33:38;;;;;;;2.90;1.70;;;;;;;;;;5020014;28;20038;-86
2021/12/02 16:36:06;;;;;;;2.03;1.38;;;;;;;;;;5018032;28;20079;-87
2021/12/02 16:38:32;;;;;;;2.15;1.90;;;;;;;;;;5032113;28;20021;-88
2021/12/02 16:40:59;;;;;;;4.22;2.00;;;;;;;;;;5018115;28;20080;-86
2021/12/02 16:43:24;;;;;;;2.58;1.92;;;;;;;;;;5035185;28;20052;-89
2021/12/02 16:45:54;;;;;;;3.40;2.60;;;;;;;;;;5031328;28;20021;-88
2021/12/02 16:48:20;;;;;;;2.03;1.83;;;;;;;;;;5003493;28;20064;-88
2021/12/02 16:50:50;;;;;;;6.70;2.38;;;;;;;;;;5033987;28;20451;-86
2021/12/02 16:53:16;;;;;;;2.90;1.70;;;;;;;;;;5033422;28;20017;-85